Time;durP1;ratioP1;P1;durP2;ratioP2;P2;SDS_P1;SDS_P2;PMS_P1;PMS_P2;Temp;Humidity;BMP_temperature;BMP_pressure;BME280_temperature;BME280_humidity;BME280_pressure;Samples;Min_cycle;Max_cycle;Signal;HPM_P1;HPM_P2
2021/05/30 00:00:25;;;;;;;43.15;17.98;;;11.40;59.80;;;;;;5065838;28;20037;-65
2021/05/30 00:02:53;;;;;;;38.45;18.08;;;11.40;59.90;;;;;;5061710;28;20401;-65
2021/05/30 00:05:21;;;;;;;25.83;11.93;;;11.40;59.90;;;;;;5059606;28;20113;-65
2021/05/30 00:07:50;;;;;;;30.13;14.30;;;11.30;59.70;;;;;;5066711;28;20047;-66
2021/05/30 00:10:17;;;;;;;25.92;13.48;;;11.30;59.60;;;;;;5069292;28;20045;-65
2021/05/30 00:12:46;;;;;;;28.05;13.25;;;11.20;59.70;;;;;;5066195;28;20033;-66
2021/05/30 00:15:12;;;;;;;31.10;13.95;;;11.20;59.70;;;;;;5064096;28;20033;-66
2021/05/30 00:17:40;;;;;;;29.98;14.60;;;11.20;59.70;;;;;;5065338;28;20029;-65
2021/05/30 00:20:08;;;;;;;29.70;15.10;;;11.10;59.70;;;;;;5061097;28;20437;-66
2021/05/30 00:22:36;;;;;;;31.95;15.65;;;11.10;59.80;;;;;;5065813;28;20036;-65
2021/05/30 00:25:04;;;;;;;37.33;16.38;;;11.10;59.80;;;;;;5061263;28;20037;-65
2021/05/30 00:27:32;;;;;;;31.42;15.93;;;11.10;59.90;;;;;;5055133;28;20032;-65
2021/05/30 00:29:59;;;;;;;36.60;16.17;;;11.10;59.90;;;;;;5063432;28;20662;-65
2021/05/30 00:32:27;;;;;;;39.90;17.92;;;11.00;59.90;;;;;;5059943;28;20052;-65
2021/05/30 00:34:57;;;;;;;34.58;15.00;;;11.00;59.90;;;;;;5066414;28;20093;-65
2021/05/30 00:37:23;;;;;;;30.60;14.43;;;11.00;59.90;;;;;;5060793;28;20512;-65
2021/05/30 00:39:51;;;;;;;31.02;16.05;;;10.90;59.90;;;;;;5064990;28;20048;-66
2021/05/30 00:42:19;;;;;;;41.47;16.88;;;10.90;59.90;;;;;;5066034;28;20037;-65
2021/05/30 00:44:44;;;;;;;33.85;16.08;;;10.90;60.00;;;;;;5062070;28;20075;-65
2021/05/30 00:47:10;;;;;;;47.17;17.77;;;10.80;59.90;;;;;;5064224;28;20068;-66
2021/05/30 00:49:38;;;;;;;42.85;17.15;;;10.80;59.90;;;;;;5063191;28;20036;-65
2021/05/30 00:52:07;;;;;;;37.92;18.42;;;10.80;59.90;;;;;;5060106;28;20090;-65
2021/05/30 00:54:36;;;;;;;44.25;20.23;;;10.80;60.10;;;;;;5068268;28;20518;-65
2021/05/30 00:57:04;;;;;;;47.17;20.98;;;10.80;60.10;;;;;;5064051;28;20115;-65
2021/05/30 00:59:32;;;;;;;35.58;17.70;;;10.80;60.10;;;;;;5059841;28;20037;-64
2021/05/30 01:01:57;;;;;;;34.70;17.58;;;10.80;60.10;;;;;;5067123;28;20491;-65
2021/05/30 01:04:23;;;;;;;34.08;17.63;;;10.70;60.10;;;;;;5066555;28;20045;-65
2021/05/30 01:06:55;;;;;;;34.33;16.92;;;10.80;60.20;;;;;;5056640;28;20040;-65
2021/05/30 01:09:23;;;;;;;36.55;17.00;;;10.70;60.10;;;;;;5064697;28;20036;-66
2021/05/30 01:11:49;;;;;;;35.30;17.13;;;10.70;60.00;;;;;;5067147;28;20032;-66
2021/05/30 01:14:15;;;;;;;42.92;19.13;;;10.70;60.00;;;;;;5066557;28;20036;-66
2021/05/30 01:16:43;;;;;;;42.78;18.80;;;10.70;60.00;;;;;;5068078;28;20048;-65
2021/05/30 01:19:13;;;;;;;40.67;18.73;;;10.60;60.00;;;;;;5065903;28;20405;-65
2021/05/30 01:21:41;;;;;;;33.60;16.70;;;10.60;60.10;;;;;;5068157;28;20089;-65
2021/05/30 01:24:09;;;;;;;36.33;16.98;;;10.60;60.20;;;;;;5064896;28;20490;-65
2021/05/30 01:26:37;;;;;;;30.60;15.90;;;10.60;60.10;;;;;;5065156;28;20063;-65
2021/05/30 01:29:05;;;;;;;34.50;17.25;;;10.50;60.10;;;;;;5050527;28;20041;-66
2021/05/30 01:31:36;;;;;;;32.58;16.52;;;10.50;60.20;;;;;;5065168;28;20064;-66
2021/05/30 01:34:04;;;;;;;49.25;20.42;;;10.50;60.20;;;;;;5063314;28;20213;-65
2021/05/30 01:36:30;;;;;;;36.53;18.20;;;10.50;60.20;;;;;;5061710;28;20122;-65
2021/05/30 01:38:58;;;;;;;39.50;18.55;;;10.50;60.20;;;;;;5061901;28;20082;-65
2021/05/30 01:41:23;;;;;;;42.45;18.95;;;10.40;60.30;;;;;;5062905;28;20069;-65
2021/05/30 01:43:49;;;;;;;44.10;19.25;;;10.50;60.30;;;;;;5068317;28;20110;-65
2021/05/30 01:46:14;;;;;;;47.15;21.48;;;10.50;60.40;;;;;;5067411;28;20040;-65
2021/05/30 01:48:40;;;;;;;44.55;19.60;;;10.50;61.20;;;;;;5069578;28;20032;-66
2021/05/30 01:51:10;;;;;;;41.40;18.27;;;10.50;60.50;;;;;;5064810;28;23059;-65
2021/05/30 01:53:41;;;;;;;43.30;19.02;;;10.40;60.40;;;;;;5061560;28;20043;-66
2021/05/30 01:58:40;;;;;;;37.35;17.63;;;10.40;60.50;;;;;;5066598;28;20033;-65
2021/05/30 02:01:08;;;;;;;36.33;17.52;;;10.40;60.50;;;;;;5069900;28;20410;-65
2021/05/30 02:03:35;;;;;;;35.00;16.30;;;10.30;60.40;;;;;;5058947;28;20048;-65
2021/05/30 02:06:05;;;;;;;33.72;15.95;;;10.30;60.40;;;;;;5068816;28;20039;-66
2021/05/30 02:08:32;;;;;;;28.80;13.90;;;10.30;60.30;;;;;;5069847;28;20047;-65
2021/05/30 02:11:02;;;;;;;36.35;15.85;;;10.20;60.30;;;;;;5069029;28;20036;-65
2021/05/30 02:13:29;;;;;;;40.90;17.38;;;10.20;60.40;;;;;;5052989;28;20037;-66
2021/05/30 02:15:56;;;;;;;42.30;18.05;;;10.20;60.40;;;;;;5071322;28;20052;-65
2021/05/30 02:18:24;;;;;;;40.42;17.25;;;10.20;60.40;;;;;;5070613;28;20040;-65
2021/05/30 02:20:52;;;;;;;39.55;18.50;;;10.10;60.40;;;;;;5068906;28;20119;-66
2021/05/30 02:23:18;;;;;;;40.75;18.73;;;10.10;60.50;;;;;;5062600;28;20036;-65
2021/05/30 02:25:46;;;;;;;47.30;18.17;;;10.10;60.50;;;;;;5068737;28;20037;-65
2021/05/30 02:28:14;;;;;;;46.00;19.15;;;10.10;60.50;;;;;;5066530;28;20032;-66
2021/05/30 02:30:42;;;;;;;47.60;19.67;;;10.10;60.50;;;;;;5063757;28;20037;-65
2021/05/30 02:33:08;;;;;;;43.28;19.17;;;10.10;60.50;;;;;;5065148;28;20039;-65
2021/05/30 02:35:33;;;;;;;43.38;18.83;;;10.10;60.60;;;;;;5065270;28;20037;-66
2021/05/30 02:37:59;;;;;;;51.67;19.83;;;10.10;60.70;;;;;;5064329;28;20029;-66
2021/05/30 02:40:29;;;;;;;44.38;18.90;;;10.10;60.70;;;;;;5068280;28;20032;-65
2021/05/30 02:42:54;;;;;;;50.45;19.02;;;10.10;60.70;;;;;;5070055;28;20105;-65
2021/05/30 02:45:22;;;;;;;38.90;17.90;;;10.00;60.70;;;;;;5065944;28;20456;-65
2021/05/30 02:47:53;;;;;;;35.72;17.13;;;10.00;60.60;;;;;;5067877;28;20040;-65
2021/05/30 02:50:23;;;;;;;34.95;14.68;;;10.00;60.70;;;;;;5068954;28;20402;-65
2021/05/30 02:52:51;;;;;;;40.60;17.73;;;10.00;60.70;;;;;;5062450;28;20041;-65
2021/05/30 02:55:16;;;;;;;48.38;19.77;;;10.00;60.70;;;;;;5064556;28;20029;-65
2021/05/30 02:57:42;;;;;;;42.33;18.48;;;10.00;60.80;;;;;;5066251;28;20029;-65
2021/05/30 03:00:09;;;;;;;45.42;18.10;;;10.00;60.80;;;;;;5068278;28;20025;-65
2021/05/30 03:02:35;;;;;;;42.25;17.15;;;10.00;60.80;;;;;;5065245;28;20046;-65
2021/05/30 03:05:01;;;;;;;42.42;16.45;;;10.00;60.90;;;;;;5062770;28;20120;-65
2021/05/30 03:07:31;;;;;;;38.50;16.60;;;10.00;60.90;;;;;;5068810;28;20402;-65
2021/05/30 03:09:57;;;;;;;37.97;16.25;;;10.00;60.90;;;;;;5066506;28;20536;-66
2021/05/30 03:12:23;;;;;;;37.08;16.55;;;10.00;60.80;;;;;;5064642;28;20029;-65
2021/05/30 03:14:51;;;;;;;35.30;15.77;;;10.00;60.90;;;;;;5059823;28;20035;-65
2021/05/30 03:17:16;;;;;;;35.03;14.85;;;9.90;60.80;;;;;;5063436;28;20045;-65
2021/05/30 03:19:42;;;;;;;41.15;17.08;;;9.90;60.90;;;;;;5063456;28;20367;-65
2021/05/30 03:22:08;;;;;;;38.70;15.82;;;9.90;60.90;;;;;;5064392;28;20078;-65
2021/05/30 03:24:34;;;;;;;39.85;16.33;;;9.90;60.90;;;;;;5057465;28;20414;-65
2021/05/30 03:27:02;;;;;;;34.05;16.55;;;9.90;60.90;;;;;;5065525;28;20025;-65
2021/05/30 03:29:30;;;;;;;40.63;15.60;;;9.90;61.00;;;;;;5066109;28;20120;-65
2021/05/30 03:31:55;;;;;;;40.63;17.98;;;9.90;61.00;;;;;;5057982;28;20456;-65
2021/05/30 03:34:23;;;;;;;38.28;15.90;;;9.90;61.00;;;;;;5062257;28;20100;-65
2021/05/30 03:36:52;;;;;;;32.95;15.38;;;10.00;61.10;;;;;;5061904;28;20402;-66
2021/05/30 03:39:23;;;;;;;32.80;15.70;;;10.00;61.20;;;;;;5057485;28;20230;-65
2021/05/30 03:41:53;;;;;;;36.50;16.17;;;10.00;61.40;;;;;;5056399;28;20048;-65
2021/05/30 03:44:21;;;;;;;32.28;15.07;;;10.10;61.70;;;;;;5067291;28;20240;-66
2021/05/30 03:46:47;;;;;;;32.05;15.05;;;10.10;61.70;;;;;;5059055;28;20033;-65
2021/05/30 03:49:15;;;;;;;36.90;15.82;;;10.10;61.60;;;;;;5060407;28;20299;-65
2021/05/30 03:51:43;;;;;;;47.25;19.15;;;10.20;61.70;;;;;;5069083;28;20492;-65
2021/05/30 03:54:08;;;;;;;38.42;18.58;;;10.20;61.70;;;;;;5066361;28;20035;-65
2021/05/30 03:56:36;;;;;;;35.00;18.25;;;10.30;62.00;;;;;;5065343;28;20405;-65
2021/05/30 03:59:02;;;;;;;43.92;19.08;;;10.40;62.20;;;;;;5063318;28;20051;-65
2021/05/30 04:01:27;;;;;;;46.88;19.25;;;10.50;62.40;;;;;;5063370;28;20436;-66
2021/05/30 04:03:55;;;;;;;36.00;17.50;;;10.60;62.50;;;;;;5064980;28;20518;-65
2021/05/30 04:06:22;;;;;;;34.55;17.10;;;10.80;62.50;;;;;;5064758;28;20067;-65
2021/05/30 04:08:48;;;;;;;40.83;18.05;;;10.90;62.30;;;;;;5064846;28;20089;-65
2021/05/30 04:11:18;;;;;;;37.75;19.77;;;10.90;62.40;;;;;;5066183;28;20037;-66
2021/05/30 04:13:46;;;;;;;43.20;19.27;;;11.00;62.40;;;;;;5067717;28;20068;-66
2021/05/30 04:16:12;;;;;;;43.63;20.25;;;11.10;62.60;;;;;;5066955;28;20040;-65
2021/05/30 04:18:37;;;;;;;40.22;19.65;;;11.20;62.70;;;;;;5062144;28;20114;-65
2021/05/30 04:21:06;;;;;;;45.60;20.17;;;11.40;62.70;;;;;;5063464;28;20040;-65
2021/05/30 04:23:32;;;;;;;48.30;21.55;;;11.50;62.80;;;;;;5067642;28;20064;-66
2021/05/30 04:26:00;;;;;;;43.55;19.90;;;11.60;62.70;;;;;;5068038;28;20036;-65
2021/05/30 04:28:25;;;;;;;50.67;20.42;;;11.70;62.90;;;;;;5065449;27;20036;-65
2021/05/30 04:30:51;;;;;;;45.45;19.73;;;11.80;62.80;;;;;;5065773;28;20042;-65
2021/05/30 04:33:17;;;;;;;45.33;19.17;;;12.00;62.90;;;;;;5062273;28;20043;-65
2021/05/30 04:35:43;;;;;;;42.83;19.38;;;12.10;62.90;;;;;;5061046;28;20033;-66
2021/05/30 04:38:11;;;;;;;45.10;19.67;;;12.20;63.00;;;;;;5066316;28;20093;-66
2021/05/30 04:40:39;;;;;;;67.03;22.38;;;12.40;63.10;;;;;;5065497;28;20328;-65
2021/05/30 04:43:07;;;;;;;61.63;23.63;;;12.50;63.00;;;;;;5067190;28;20036;-65
2021/05/30 04:45:33;;;;;;;67.70;22.90;;;12.60;62.90;;;;;;5064931;28;20037;-65
2021/05/30 04:47:58;;;;;;;62.88;23.85;;;12.70;62.80;;;;;;5067918;28;20075;-65
2021/05/30 04:50:26;;;;;;;74.25;23.88;;;12.80;62.80;;;;;;5065974;28;20479;-66
2021/05/30 04:52:59;;;;;;;76.97;23.35;;;13.00;62.80;;;;;;5060026;28;20029;-65
2021/05/30 04:55:27;;;;;;;72.85;24.48;;;13.10;62.80;;;;;;5056682;28;20059;-66
2021/05/30 04:57:55;;;;;;;67.43;23.63;;;13.20;62.80;;;;;;5065687;28;20032;-66
2021/05/30 05:00:21;;;;;;;71.38;23.80;;;13.30;62.70;;;;;;5061615;28;20110;-66
2021/05/30 05:02:46;;;;;;;66.90;24.60;;;13.40;62.70;;;;;;5061533;28;20048;-65
2021/05/30 05:05:13;;;;;;;69.65;22.15;;;13.50;62.60;;;;;;5060442;28;20033;-66
2021/05/30 05:07:43;;;;;;;66.07;22.45;;;13.60;62.50;;;;;;5062714;28;20048;-65
2021/05/30 05:10:10;;;;;;;63.28;23.13;;;13.80;62.50;;;;;;5062312;28;20097;-66
2021/05/30 05:12:36;;;;;;;70.78;22.92;;;13.90;62.20;;;;;;5061141;28;20033;-65
2021/05/30 05:15:02;;;;;;;72.85;21.45;;;13.90;62.00;;;;;;5063701;28;20035;-66
2021/05/30 05:17:28;;;;;;;62.47;22.40;;;14.00;61.80;;;;;;5067172;28;20044;-65
2021/05/30 05:19:53;;;;;;;49.78;20.80;;;14.00;61.60;;;;;;5067318;28;20025;-66
2021/05/30 05:22:22;;;;;;;53.95;21.23;;;14.10;61.60;;;;;;5070361;28;20122;-66
2021/05/30 05:24:47;;;;;;;49.10;21.48;;;14.10;61.50;;;;;;5068246;28;20162;-66
2021/05/30 05:27:13;;;;;;;55.50;22.33;;;14.20;61.50;;;;;;5072471;28;20119;-65
2021/05/30 05:29:38;;;;;;;62.33;22.77;;;14.20;61.40;;;;;;5064299;28;20029;-65
2021/05/30 05:32:07;;;;;;;57.08;20.80;;;14.30;61.20;;;;;;5070335;28;20048;-66
2021/05/30 05:34:32;;;;;;;72.35;23.52;;;14.30;61.00;;;;;;5071526;28;20041;-66
2021/05/30 05:36:58;;;;;;;51.33;21.52;;;14.30;60.80;;;;;;5065379;28;20743;-65
2021/05/30 05:39:24;;;;;;;53.35;22.55;;;14.30;60.80;;;;;;5072231;28;20041;-65
2021/05/30 05:41:51;;;;;;;53.47;22.48;;;14.30;60.60;;;;;;5069817;28;20440;-65
2021/05/30 05:44:23;;;;;;;51.85;20.88;;;14.40;60.80;;;;;;5072206;28;20040;-65
2021/05/30 05:46:48;;;;;;;61.40;19.75;;;14.40;60.70;;;;;;5066838;28;20100;-66
2021/05/30 05:49:14;;;;;;;68.70;20.42;;;14.40;60.40;;;;;;5065401;28;20037;-66
2021/05/30 05:51:42;;;;;;;50.38;21.50;;;14.40;60.00;;;;;;5071449;28;20039;-66
2021/05/30 05:54:10;;;;;;;42.05;18.80;;;14.40;60.30;;;;;;5068681;28;20040;-66
2021/05/30 05:56:35;;;;;;;40.25;18.80;;;14.40;60.30;;;;;;5070938;28;20604;-66
2021/05/30 05:59:03;;;;;;;67.25;20.05;;;14.50;60.30;;;;;;5071525;28;20484;-66
2021/05/30 06:01:29;;;;;;;43.78;19.35;;;14.50;60.40;;;;;;5067525;28;20037;-66
2021/05/30 06:03:57;;;;;;;45.63;19.83;;;14.60;60.10;;;;;;5069404;28;20045;-65
2021/05/30 06:06:29;;;;;;;40.15;18.90;;;14.60;60.00;;;;;;5064472;28;20417;-65
2021/05/30 06:08:54;;;;;;;62.83;19.10;;;14.60;59.70;;;;;;5069131;28;20110;-65
2021/05/30 06:11:24;;;;;;;46.05;18.95;;;14.70;59.80;;;;;;5071515;28;20520;-66
2021/05/30 06:13:52;;;;;;;41.47;19.25;;;14.70;59.80;;;;;;5061616;28;20053;-65
2021/05/30 06:16:20;;;;;;;42.53;19.98;;;14.70;59.80;;;;;;5069290;28;20040;-65
2021/05/30 06:18:46;;;;;;;45.55;18.42;;;14.80;59.80;;;;;;5070744;28;20410;-66
2021/05/30 06:21:14;;;;;;;47.85;19.05;;;14.80;59.60;;;;;;5064878;28;20040;-66
2021/05/30 06:23:41;;;;;;;55.08;19.15;;;14.90;59.40;;;;;;5066278;28;20090;-66
2021/05/30 06:26:10;;;;;;;38.65;19.45;;;14.90;59.50;;;;;;5070666;28;20036;-65
2021/05/30 06:28:40;;;;;;;53.88;19.48;;;14.90;59.60;;;;;;5064208;28;20040;-65
2021/05/30 06:31:08;;;;;;;43.83;19.67;;;15.00;59.70;;;;;;5064311;28;20044;-66
2021/05/30 06:33:39;;;;;;;41.08;19.20;;;15.00;59.40;;;;;;5068030;28;20032;-66
2021/05/30 06:36:05;;;;;;;35.53;17.48;;;15.00;59.30;;;;;;5070207;28;20037;-66
2021/05/30 06:38:32;;;;;;;37.75;18.60;;;15.00;59.50;;;;;;5068754;28;20063;-65
2021/05/30 06:41:00;;;;;;;39.15;18.77;;;15.10;59.40;;;;;;5067483;28;20156;-66
2021/05/30 06:43:26;;;;;;;38.50;18.92;;;15.10;59.10;;;;;;5069126;28;20106;-66
2021/05/30 06:45:54;;;;;;;36.67;19.10;;;15.10;59.20;;;;;;5065305;28;20261;-65
2021/05/30 06:48:24;;;;;;;36.92;19.77;;;15.30;59.20;;;;;;5069524;28;20076;-66
2021/05/30 06:51:14;;;;;;;35.97;19.05;;;15.30;59.00;;;;;;5067157;28;20113;-66
2021/05/30 06:53:37;;;;;;;36.35;18.73;;;15.40;58.70;;;;;;5067922;28;20098;-66
2021/05/30 06:56:03;;;;;;;35.40;18.70;;;15.40;58.50;;;;;;5069179;28;20040;-66
2021/05/30 06:58:33;;;;;;;38.10;18.67;;;15.50;58.30;;;;;;5067988;28;20043;-65
2021/05/30 07:01:01;;;;;;;36.05;18.98;;;15.50;58.30;;;;;;5070067;28;20415;-65
2021/05/30 07:03:27;;;;;;;32.55;17.42;;;15.60;58.30;;;;;;5064643;28;20119;-66
2021/05/30 07:05:52;;;;;;;33.10;15.93;;;15.70;58.80;;;;;;5066177;28;21055;-66
2021/05/30 07:08:18;;;;;;;34.85;17.58;;;15.80;58.00;;;;;;5066230;28;20037;-66
2021/05/30 07:10:46;;;;;;;36.13;17.63;;;15.80;57.50;;;;;;5066218;28;20044;-66
2021/05/30 07:13:12;;;;;;;32.30;18.17;;;15.90;57.60;;;;;;5068571;28;20115;-66
2021/05/30 07:15:39;;;;;;;33.20;17.77;;;15.90;57.60;;;;;;5068696;28;20127;-66
2021/05/30 07:18:05;;;;;;;37.08;18.58;;;15.90;57.50;;;;;;5070007;28;20035;-66
2021/05/30 07:20:31;;;;;;;35.55;18.65;;;16.00;57.50;;;;;;5063734;28;20040;-66
2021/05/30 07:22:59;;;;;;;32.80;17.20;;;16.00;57.60;;;;;;5065842;28;20045;-66
2021/05/30 07:25:27;;;;;;;33.85;17.55;;;16.10;57.40;;;;;;5066587;28;20129;-66
2021/05/30 07:27:55;;;;;;;31.02;16.38;;;16.20;57.30;;;;;;5063996;28;20116;-66
2021/05/30 07:30:21;;;;;;;26.58;15.82;;;16.20;57.10;;;;;;5069636;28;20044;-66
2021/05/30 07:32:46;;;;;;;28.92;16.92;;;16.30;57.60;;;;;;5066818;28;20036;-66
2021/05/30 07:35:12;;;;;;;31.02;16.52;;;16.40;56.90;;;;;;5067122;28;20039;-66
2021/05/30 07:37:38;;;;;;;33.65;17.23;;;16.50;56.30;;;;;;5068751;28;20226;-66
2021/05/30 07:40:04;;;;;;;36.40;19.00;;;16.50;56.00;;;;;;5067726;28;20078;-66
2021/05/30 07:42:30;;;;;;;32.83;18.33;;;16.40;56.10;;;;;;5049498;28;20515;-65
2021/05/30 07:44:58;;;;;;;31.20;17.45;;;16.50;56.30;;;;;;5067196;28;20049;-66
2021/05/30 07:47:26;;;;;;;34.55;19.52;;;16.50;56.10;;;;;;5068322;28;20509;-66
2021/05/30 07:49:52;;;;;;;39.70;18.50;;;16.50;56.00;;;;;;5066944;28;20397;-65
2021/05/30 07:52:20;;;;;;;35.15;19.77;;;16.50;56.50;;;;;;5060939;28;20044;-65
2021/05/30 07:54:45;;;;;;;40.58;21.02;;;16.60;56.20;;;;;;5060966;28;20068;-65
2021/05/30 07:57:11;;;;;;;43.10;19.98;;;16.70;56.10;;;;;;5062968;28;20072;-66
2021/05/30 07:59:39;;;;;;;43.55;20.38;;;16.80;55.90;;;;;;5063276;28;20094;-65
2021/05/30 08:02:07;;;;;;;37.67;19.38;;;16.80;55.80;;;;;;5055996;28;20123;-65
2021/05/30 08:04:35;;;;;;;36.55;18.90;;;16.90;55.70;;;;;;5064385;28;20502;-65
2021/05/30 08:07:03;;;;;;;33.65;18.25;;;17.00;55.60;;;;;;5067892;28;20033;-66
2021/05/30 08:09:33;;;;;;;33.70;17.85;;;17.00;55.30;;;;;;5062545;28;20037;-66
2021/05/30 08:12:00;;;;;;;33.90;18.33;;;17.00;55.20;;;;;;5059567;28;20060;-65
2021/05/30 08:14:26;;;;;;;38.85;17.85;;;17.10;55.50;;;;;;5062638;28;20033;-66
2021/05/30 08:16:52;;;;;;;32.92;17.67;;;17.10;55.40;;;;;;5063014;28;20115;-66
2021/05/30 08:19:20;;;;;;;29.63;16.50;;;17.20;55.30;;;;;;5060411;28;20174;-65
2021/05/30 08:21:46;;;;;;;31.35;15.75;;;17.30;55.60;;;;;;5065311;28;20505;-65
2021/05/30 08:24:14;;;;;;;34.78;17.33;;;17.50;55.30;;;;;;5067913;28;20056;-66
2021/05/30 08:26:40;;;;;;;28.35;14.48;;;17.50;55.20;;;;;;5066355;28;20511;-66
2021/05/30 08:29:05;;;;;;;30.27;15.55;;;17.60;55.00;;;;;;5066914;28;20123;-66
2021/05/30 08:31:31;;;;;;;26.10;15.48;;;17.70;55.00;;;;;;5059987;28;20336;-66
2021/05/30 08:33:57;;;;;;;30.13;14.48;;;;;;;;;;5060655;28;20037;-65
2021/05/30 08:36:27;;;;;;;28.08;13.88;;;;;;;;;;5065608;28;20086;-66
2021/05/30 08:38:55;;;;;;;22.58;13.75;;;;;;;;;;5065458;28;20041;-66
2021/05/30 08:41:21;;;;;;;22.50;13.77;;;;;;;;;;5067719;28;20322;-65
2021/05/30 08:43:48;;;;;;;24.88;14.07;;;;;;;;;;5063376;28;20158;-66
2021/05/30 08:46:14;;;;;;;22.83;13.55;;;;;;;;;;5063455;28;20039;-66
2021/05/30 08:48:40;;;;;;;25.40;13.10;;;;;;;;;;5063872;28;20043;-65
2021/05/30 08:51:08;;;;;;;20.13;13.30;;;17.80;54.80;;;;;;5065746;28;20044;-65
2021/05/30 08:53:38;;;;;;;26.10;14.77;;;19.10;52.90;;;;;;5068468;28;20044;-65
2021/05/30 08:56:05;;;;;;;19.60;13.38;;;19.20;51.50;;;;;;5066515;28;20414;-66
2021/05/30 08:58:42;;;;;;;22.35;13.93;;;19.30;51.70;;;;;;5065658;28;20032;-65
2021/05/30 09:01:19;;;;;;;21.92;12.50;;;19.60;51.60;;;;;;5060244;28;20036;-66
2021/05/30 09:04:07;;;;;;;23.48;13.35;;;20.10;51.20;;;;;;5063774;28;20624;-65
2021/05/30 09:06:41;;;;;;;21.20;12.23;;;21.00;50.60;;;;;;5053647;28;20114;-66
2021/05/30 09:09:08;;;;;;;22.60;12.65;;;21.70;48.50;;;;;;5066558;28;20461;-66
2021/05/30 09:11:48;;;;;;;20.08;11.77;;;22.00;47.20;;;;;;5064891;28;20417;-66
2021/05/30 09:14:20;;;;;;;17.25;10.43;;;23.00;47.40;;;;;;5055350;28;20032;-66
2021/05/30 09:16:59;;;;;;;16.92;10.63;;;;;;;;;;5063741;28;20128;-67
2021/05/30 09:19:34;;;;;;;18.10;10.90;;;;;;;;;;5062486;28;20111;-66
2021/05/30 09:22:24;;;;;;;16.70;10.43;;;24.80;45.30;;;;;;5061389;28;20044;-66
2021/05/30 09:24:52;;;;;;;18.60;10.65;;;29.00;36.20;;;;;;5066496;28;20435;-66
2021/05/30 09:27:24;;;;;;;20.40;11.30;;;29.40;34.20;;;;;;5067619;28;20130;-66
2021/05/30 09:30:33;;;;;;;19.85;11.02;;;29.60;33.20;;;;;;5078946;28;20041;-67
2021/05/30 09:33:07;;;;;;;14.80;10.43;;;29.80;33.90;;;;;;5054583;28;20402;-66
2021/05/30 09:35:43;;;;;;;16.15;10.30;;;30.40;32.50;;;;;;5056492;28;20036;-67
2021/05/30 09:38:18;;;;;;;18.38;10.60;;;30.60;31.30;;;;;;5066893;28;20120;-66
2021/05/30 09:40:52;;;;;;;16.15;10.15;;;30.40;31.30;;;;;;5064248;28;20048;-66
2021/05/30 09:43:28;;;;;;;18.40;9.77;;;30.80;31.10;;;;;;5066499;28;20033;-67
2021/05/30 09:46:17;;;;;;;16.63;10.20;;;31.60;30.40;;;;;;5067167;28;20032;-67
2021/05/30 09:48:49;;;;;;;15.60;9.63;;;;;;;;;;5062664;28;20452;-67
2021/05/30 09:51:33;;;;;;;13.95;10.18;;;;;;;;;;5064957;28;20036;-66
2021/05/30 09:54:10;;;;;;;15.73;9.13;;;32.50;29.30;;;;;;5066678;28;20043;-67
2021/05/30 09:56:51;;;;;;;15.35;8.48;;;34.10;27.00;;;;;;5063068;28;20033;-67
2021/05/30 09:59:23;;;;;;;14.70;9.10;;;34.20;27.40;;;;;;5062390;28;20032;-67
2021/05/30 10:01:59;;;;;;;14.55;8.35;;;34.40;27.00;;;;;;5067656;28;20036;-67
2021/05/30 10:04:35;;;;;;;14.05;8.27;;;34.70;26.30;;;;;;5068487;28;20029;-67
2021/05/30 10:07:04;;;;;;;14.23;7.85;;;35.00;26.10;;;;;;5065172;28;20044;-67
2021/05/30 10:09:30;;;;;;;13.10;8.82;;;35.30;26.40;;;;;;5068641;28;20044;-67
2021/05/30 10:11:59;;;;;;;16.98;8.73;;;35.40;25.50;;;;;;5071264;28;20391;-67
2021/05/30 10:14:26;;;;;;;17.20;9.98;;;35.30;25.50;;;;;;5065643;28;20498;-67
2021/05/30 10:16:54;;;;;;;14.30;9.05;;;35.20;25.20;;;;;;5070846;28;20051;-67
2021/05/30 10:19:26;;;;;;;12.23;8.48;;;35.10;26.10;;;;;;5068005;28;20109;-66
2021/05/30 10:21:57;;;;;;;11.93;8.27;;;;;;;;;;5067806;28;20040;-66
2021/05/30 10:24:24;;;;;;;11.27;7.68;;;;;;;;;;5067144;28;20047;-66
2021/05/30 10:27:08;;;;;;;13.70;8.50;;;;;;;;;;5066453;28;20051;-67
2021/05/30 10:29:37;;;;;;;15.80;7.68;;;;;;;;;;5067709;28;20511;-67
2021/05/30 10:32:16;;;;;;;17.58;8.50;;;;;;;;;;5068565;28;20098;-67
2021/05/30 10:35:01;;;;;;;12.65;7.40;;;;;;;;;;5064810;28;20513;-66
2021/05/30 10:37:27;;;;;;;13.20;8.05;;;;;;;;;;5063989;28;20036;-66
2021/05/30 10:39:55;;;;;;;11.65;8.15;;;;;;;;;;5071031;28;20086;-66
2021/05/30 10:42:28;;;;;;;13.02;7.25;;;;;;;;;;5064252;28;20048;-66
2021/05/30 10:45:03;;;;;;;12.98;7.82;;;;;;;;;;5059875;28;20039;-66
2021/05/30 10:47:47;;;;;;;12.50;8.00;;;;;;;;;;5068763;28;20124;-66
2021/05/30 10:50:15;;;;;;;13.50;8.02;;;35.10;25.60;;;;;;5062634;28;20043;-66
2021/05/30 10:52:48;;;;;;;13.80;7.32;;;32.00;28.70;;;;;;5062942;28;20522;-66
2021/05/30 10:55:18;;;;;;;13.23;8.05;;;31.50;29.50;;;;;;5063900;28;20039;-66
2021/05/30 10:57:49;;;;;;;15.43;8.98;;;31.00;29.80;;;;;;5067083;28;20398;-66
2021/05/30 11:00:20;;;;;;;16.25;8.73;;;30.50;30.00;;;;;;5065318;28;20443;-66
2021/05/30 11:03:07;;;;;;;13.20;7.93;;;30.20;30.80;;;;;;5065907;28;20043;-66
2021/05/30 11:05:56;;;;;;;14.90;8.05;;;29.90;30.90;;;;;;5066487;28;20173;-66
2021/05/30 11:08:31;;;;;;;15.95;8.15;;;29.70;31.40;;;;;;5062789;28;20048;-66
2021/05/30 11:11:26;;;;;;;10.73;7.63;;;29.60;32.60;;;;;;5065938;28;20044;-66
2021/05/30 11:13:59;;;;;;;14.93;7.93;;;29.40;32.70;;;;;;5076862;28;20060;-66
2021/05/30 11:16:32;;;;;;;16.95;7.95;;;29.40;33.00;;;;;;5070631;28;20036;-66
2021/05/30 11:19:06;;;;;;;16.70;8.68;;;29.30;32.90;;;;;;5066656;28;20053;-66
2021/05/30 11:21:36;;;;;;;13.85;8.15;;;29.30;32.10;;;;;;5067922;28;20051;-66
2021/05/30 11:24:06;;;;;;;14.43;8.07;;;29.30;32.20;;;;;;5067850;28;20102;-66
2021/05/30 11:26:32;;;;;;;11.52;7.45;;;29.40;32.80;;;;;;5069838;28;20115;-66
2021/05/30 11:29:03;;;;;;;15.38;7.80;;;29.40;33.00;;;;;;5066567;28;20083;-66
2021/05/30 11:31:31;;;;;;;13.63;7.07;;;29.40;32.10;;;;;;5065178;28;20105;-66
2021/05/30 11:34:04;;;;;;;15.82;7.88;;;29.40;33.10;;;;;;5066165;28;20078;-66
2021/05/30 11:36:33;;;;;;;16.73;7.63;;;29.40;32.30;;;;;;5063545;28;20044;-66
2021/05/30 11:39:07;;;;;;;14.80;7.22;;;29.40;32.80;;;;;;5065834;28;20037;-66
2021/05/30 11:41:44;;;;;;;13.35;7.85;;;29.40;32.60;;;;;;5075361;28;20045;-66
2021/05/30 11:44:15;;;;;;;12.80;6.38;;;29.50;32.20;;;;;;5069363;28;20048;-66
2021/05/30 11:46:46;;;;;;;15.93;6.95;;;29.40;32.30;;;;;;5061611;28;20043;-66
2021/05/30 11:49:24;;;;;;;10.27;6.22;;;29.40;32.80;;;;;;5069753;28;20663;-66
2021/05/30 11:51:58;;;;;;;12.75;6.43;;;29.40;32.40;;;;;;5067149;28;20100;-66
2021/05/30 11:54:28;;;;;;;9.85;5.60;;;29.40;32.80;;;;;;5062085;28;20498;-66
2021/05/30 11:56:59;;;;;;;11.02;6.30;;;29.40;32.80;;;;;;5083194;28;20036;-66
2021/05/30 11:59:30;;;;;;;12.10;5.82;;;29.40;32.60;;;;;;5067604;28;20033;-66
2021/05/30 12:01:56;;;;;;;12.93;5.90;;;29.50;32.00;;;;;;5067100;28;20036;-66
2021/05/30 12:04:38;;;;;;;11.50;5.30;;;29.30;30.70;;;;;;5065213;28;20048;-66
2021/05/30 12:07:18;;;;;;;11.93;4.68;;;29.20;30.80;;;;;;5066615;28;20398;-65
2021/05/30 12:09:52;;;;;;;13.05;5.15;;;29.20;31.00;;;;;;5062930;28;20444;-66
2021/05/30 12:12:21;;;;;;;8.75;5.32;;;29.10;32.40;;;;;;5064552;28;20040;-66
2021/05/30 12:14:46;;;;;;;7.57;5.05;;;29.20;33.00;;;;;;5068414;28;20047;-66
2021/05/30 12:17:12;;;;;;;11.07;5.40;;;29.30;33.30;;;;;;5069172;28;20032;-66
2021/05/30 12:19:42;;;;;;;20.20;5.35;;;29.50;32.40;;;;;;5065357;28;20410;-66
2021/05/30 12:22:18;;;;;;;10.80;4.43;;;29.50;32.40;;;;;;5066463;28;20037;-66
2021/05/30 12:24:49;;;;;;;10.65;4.40;;;29.60;32.10;;;;;;5065821;28;20047;-66
2021/05/30 12:27:15;;;;;;;9.93;4.63;;;29.60;31.70;;;;;;5065362;28;20039;-66
2021/05/30 12:29:48;;;;;;;9.13;4.47;;;29.60;33.40;;;;;;5060796;28;20045;-66
2021/05/30 12:32:21;;;;;;;10.63;4.90;;;29.70;32.20;;;;;;5069184;28;20100;-66
2021/05/30 12:34:49;;;;;;;9.07;5.25;;;29.70;31.60;;;;;;5058141;28;20033;-66
2021/05/30 12:37:15;;;;;;;7.60;4.75;;;29.60;30.30;;;;;;5065667;28;20033;-66
2021/05/30 12:39:43;;;;;;;10.82;4.68;;;29.50;31.60;;;;;;5065177;28;20059;-65
2021/05/30 12:42:15;;;;;;;9.88;4.00;;;29.50;31.10;;;;;;5064472;28;20510;-66
2021/05/30 12:44:49;;;;;;;12.18;5.10;;;29.50;31.10;;;;;;5066728;28;20060;-66
2021/05/30 12:47:20;;;;;;;11.98;5.30;;;29.50;31.70;;;;;;5064810;28;20037;-66